createdAt,value
2022-10-11T00:01:43.020Z,98887.22
2022-10-11T00:04:09.660Z,98868.56
2022-10-11T00:06:38.240Z,98879.50
2022-10-11T00:09:05.672Z,98892.53
2022-10-11T00:11:32.736Z,98881.06
2022-10-11T00:13:59.219Z,98888.19
2022-10-11T00:16:25.911Z,98890.81
2022-10-11T00:18:52.440Z,98889.13
2022-10-11T00:21:20.927Z,98893.47
2022-10-11T00:23:48.084Z,98873.00
2022-10-11T00:26:15.128Z,98884.66
2022-10-11T00:28:42.432Z,98880.41
2022-10-11T00:31:11.584Z,98889.13
2022-10-11T00:33:38.315Z,98886.59
2022-10-11T00:36:05.678Z,98874.91
2022-10-11T00:38:32.580Z,98873.84
2022-10-11T00:41:00.174Z,98891.78
2022-10-11T00:43:29.832Z,98890.06
2022-10-11T00:45:56.351Z,98898.88
2022-10-11T00:48:27.913Z,98894.53
2022-10-11T00:50:59.924Z,98888.28
2022-10-11T00:53:29.468Z,98887.50
2022-10-11T00:56:04.262Z,98893.59
2022-10-11T00:58:33.865Z,98888.34
2022-10-11T01:01:00.674Z,98887.44
2022-10-11T01:03:29.467Z,98894.53
2022-10-11T01:05:55.978Z,98894.53
2022-10-11T01:08:23.266Z,98892.81
2022-10-11T01:10:49.983Z,98900.75
2022-10-11T01:13:28.509Z,98901.69
2022-10-11T01:15:59.205Z,98892.81
2022-10-11T01:19:00.844Z,98883.41
2022-10-11T01:21:27.451Z,98892.06
2022-10-11T01:24:14.448Z,98885.94
2022-10-11T01:27:07.124Z,98893.88
2022-10-11T01:29:55.083Z,98893.00
2022-10-11T01:32:29.642Z,98889.53
2022-10-11T01:39:06.867Z,98879.81
2022-10-11T01:41:42.721Z,98876.28
2022-10-11T01:44:12.380Z,98888.78
2022-10-11T01:46:39.080Z,98887.00
2022-10-11T01:49:06.000Z,98891.41
2022-10-11T01:51:36.332Z,98897.56
2022-10-11T01:55:07.613Z,98901.06
2022-10-11T01:57:48.635Z,98905.53
2022-10-11T02:00:21.641Z,98905.72
2022-10-11T02:03:10.105Z,98908.16
2022-10-11T02:05:57.429Z,98909.94
2022-10-11T02:08:50.120Z,98899.78
2022-10-11T02:11:24.619Z,98907.31
2022-10-11T02:14:00.427Z,98906.47
2022-10-11T02:16:31.495Z,98906.47
2022-10-11T02:19:02.924Z,98906.47
2022-10-11T02:21:33.241Z,98909.94
2022-10-11T02:24:25.259Z,98910.81
2022-10-11T02:26:55.511Z,98893.88
2022-10-11T02:29:24.581Z,98906.34
2022-10-11T02:31:52.476Z,98903.72
2022-10-11T02:34:27.520Z,98908.16
2022-10-11T02:37:01.408Z,98906.34
2022-10-11T02:39:39.406Z,98906.34
2022-10-11T02:42:13.391Z,98905.53
2022-10-11T02:45:01.100Z,98904.56
2022-10-11T02:47:31.135Z,98896.31
2022-10-11T02:50:00.050Z,98911.66
2022-10-11T02:52:27.097Z,98913.34
2022-10-11T02:54:53.704Z,98917.81
2022-10-11T02:57:20.408Z,98925.75
2022-10-11T02:59:46.892Z,98923.09
2022-10-11T03:02:13.519Z,98916.94
2022-10-11T03:04:40.012Z,98916.09
2022-10-11T03:07:06.592Z,98916.94
2022-10-11T03:09:33.124Z,98917.88
2022-10-11T03:11:59.691Z,98924.88
2022-10-11T03:14:26.347Z,98921.41
2022-10-11T03:16:53.208Z,98916.09
2022-10-11T03:19:19.756Z,98927.53
2022-10-11T03:21:46.901Z,98929.34
2022-10-11T03:24:13.479Z,98925.81
2022-10-11T03:26:40.051Z,98924.03
2022-10-11T03:29:06.546Z,98927.53
2022-10-11T03:31:33.114Z,98926.69
2022-10-11T03:33:59.636Z,98926.69
2022-10-11T03:36:26.453Z,98939.06
2022-10-11T03:38:53.000Z,98935.56
2022-10-11T03:41:19.750Z,98931.13
2022-10-11T03:43:46.315Z,98934.63
2022-10-11T03:46:13.028Z,98952.22
2022-10-11T03:48:39.785Z,98951.34
2022-10-11T03:51:06.538Z,98945.22
2022-10-11T03:53:33.156Z,98939.06
2022-10-11T03:56:01.534Z,98951.47
2022-10-11T03:58:31.401Z,98958.44
2022-10-11T04:00:57.933Z,98944.34
2022-10-11T04:03:24.520Z,98946.06
2022-10-11T04:05:51.302Z,98941.59
2022-10-11T04:08:18.301Z,98942.34
2022-10-11T04:10:44.879Z,98948.19
2022-10-11T04:13:12.144Z,98954.94
2022-10-11T04:15:39.363Z,98948.81
2022-10-11T04:18:06.470Z,98943.53
2022-10-11T04:20:33.016Z,98953.16
2022-10-11T04:22:59.724Z,98925.72
2022-10-11T04:25:26.276Z,98952.28
2022-10-11T04:27:52.904Z,98898.22
2022-10-11T04:30:19.977Z,98947.94
2022-10-11T04:32:46.529Z,98947.94
2022-10-11T04:35:13.384Z,98903.50
2022-10-11T04:37:40.056Z,98955.88
2022-10-11T04:40:08.336Z,98959.50
2022-10-11T04:42:35.166Z,98955.06
2022-10-11T04:45:01.717Z,98948.81
2022-10-11T04:47:28.285Z,98959.41
2022-10-11T04:49:54.774Z,98966.47
2022-10-11T04:52:25.539Z,98971.75
2022-10-11T04:54:52.578Z,98954.09
2022-10-11T04:57:19.068Z,98961.19
2022-10-11T04:59:49.995Z,98957.69
2022-10-11T05:02:17.201Z,98963.00
2022-10-11T05:04:43.825Z,98961.19
2022-10-11T05:07:10.468Z,98975.38
2022-10-11T05:09:37.025Z,98970.94
2022-10-11T05:12:04.083Z,98973.56
2022-10-11T05:14:30.695Z,98979.69
2022-10-11T05:16:57.601Z,98962.78
2022-10-11T05:19:24.076Z,98986.69
2022-10-11T05:21:50.685Z,98988.50
2022-10-11T05:24:17.184Z,98996.44
2022-10-11T05:26:43.732Z,98993.81
2022-10-11T05:29:10.245Z,98990.28
2022-10-11T05:31:36.827Z,99001.75
2022-10-11T05:34:03.425Z,99002.56
2022-10-11T05:36:30.115Z,99007.16
2022-10-11T05:38:56.613Z,99007.88
2022-10-11T05:41:23.274Z,99011.38
2022-10-11T05:43:49.952Z,98999.09
2022-10-11T05:46:16.760Z,99021.97
2022-10-11T05:48:43.268Z,99017.50
2022-10-11T05:51:12.090Z,99026.31
2022-10-11T05:53:39.323Z,99019.31
2022-10-11T05:56:18.475Z,99033.38
2022-10-11T05:58:45.015Z,99034.25
2022-10-11T06:01:23.831Z,99032.56
2022-10-11T06:03:51.231Z,99033.28
2022-10-11T06:06:18.276Z,99039.44
2022-10-11T06:08:45.653Z,98992.19
2022-10-11T06:11:18.214Z,99043.78
2022-10-11T06:13:44.816Z,99048.09
2022-10-11T06:16:12.228Z,99056.91
2022-10-11T06:18:39.160Z,99054.19
2022-10-11T06:21:05.817Z,99043.78
2022-10-11T06:23:32.463Z,99069.94
2022-10-11T06:26:06.854Z,99056.72
2022-10-11T06:28:35.687Z,99059.34
2022-10-11T06:31:05.172Z,99057.56
2022-10-11T06:33:32.157Z,99063.81
2022-10-11T06:36:00.361Z,99074.28
2022-10-11T06:38:27.068Z,99070.69
2022-10-11T06:40:53.860Z,99078.53
2022-10-11T06:43:21.000Z,99069.75
2022-10-11T06:45:47.628Z,99077.59
2022-10-11T06:48:14.870Z,99087.22
2022-10-11T06:50:59.075Z,99087.22
2022-10-11T06:53:27.959Z,99093.34
2022-10-11T06:56:01.016Z,99098.38
2022-10-11T06:58:28.469Z,99103.06
2022-10-11T07:00:55.075Z,99113.00
2022-10-11T07:03:21.704Z,99105.78
2022-10-11T07:05:48.216Z,99114.47
2022-10-11T07:08:14.988Z,99109.94
2022-10-11T07:10:41.492Z,99100.97
2022-10-11T07:13:11.551Z,99109.66
2022-10-11T07:15:41.437Z,99112.22
2022-10-11T07:18:08.045Z,99115.50
2022-10-11T07:23:12.992Z,99122.28
2022-10-11T07:25:39.739Z,99135.41
2022-10-11T07:28:06.291Z,99136.16
2022-10-11T07:30:33.954Z,99133.63
2022-10-11T07:33:00.443Z,99137.75
2022-10-11T07:35:27.066Z,99138.50
2022-10-11T07:37:53.620Z,99133.94
2022-10-11T07:40:20.181Z,99133.00
2022-10-11T07:42:46.922Z,99140.00
2022-10-11T07:45:16.801Z,99147.94
2022-10-11T07:47:46.357Z,99145.16
2022-10-11T07:50:13.900Z,99149.41
2022-10-11T07:52:40.597Z,99154.53
2022-10-11T07:55:07.758Z,99153.34
2022-10-11T07:57:34.272Z,99160.16
2022-10-11T08:00:00.928Z,99161.75
2022-10-11T08:04:56.563Z,99159.63
2022-10-11T08:07:23.301Z,99169.16
2022-10-11T08:09:49.885Z,99163.88
2022-10-11T08:12:16.649Z,99170.00
2022-10-11T08:14:43.245Z,99173.41
2022-10-11T08:17:10.104Z,99160.03
2022-10-11T08:19:36.647Z,99173.63
2022-10-11T08:22:04.381Z,99166.72
2022-10-11T08:24:33.534Z,99168.53
2022-10-11T08:27:03.936Z,99165.13
2022-10-11T08:29:30.477Z,99162.47
2022-10-11T08:31:57.089Z,99169.69
2022-10-11T08:34:23.932Z,99175.81
2022-10-11T08:36:50.710Z,99181.94
2022-10-11T08:39:17.233Z,99181.13
2022-10-11T08:41:52.647Z,99179.41
2022-10-11T08:44:46.130Z,99177.63
2022-10-11T08:47:28.555Z,99186.41
2022-10-11T08:49:56.005Z,99174.22
2022-10-11T08:52:27.344Z,99179.22
2022-10-11T08:54:58.223Z,99171.34
2022-10-11T08:57:27.679Z,99183.66
2022-10-11T08:59:58.857Z,99125.75
2022-10-11T09:02:55.741Z,99177.41
2022-10-11T09:05:25.056Z,99177.41
2022-10-11T09:08:07.405Z,99182.72
2022-10-11T09:10:55.913Z,99180.06
2022-10-11T09:14:11.748Z,99185.34
2022-10-11T09:16:59.529Z,99193.31
2022-10-11T09:19:50.970Z,99190.66
2022-10-11T09:22:20.560Z,99186.22
2022-10-11T09:24:54.049Z,99184.41
2022-10-11T09:28:02.899Z,99195.00
2022-10-11T09:30:31.052Z,99189.59
2022-10-11T09:35:22.674Z,99182.53
2022-10-11T09:38:04.401Z,99175.06
2022-10-11T09:40:33.936Z,99193.00
2022-10-11T09:43:00.447Z,99184.41
2022-10-11T09:45:27.105Z,99191.13
2022-10-11T09:47:56.020Z,99183.16
2022-10-11T09:50:26.091Z,99191.94
2022-10-11T09:53:01.805Z,99183.88
2022-10-11T09:55:33.265Z,99189.19
2022-10-11T09:58:00.522Z,99194.41
2022-10-11T10:00:30.074Z,99192.59
2022-10-11T10:03:04.557Z,99196.94
2022-10-11T10:05:33.821Z,99179.00
2022-10-11T10:08:26.920Z,99195.13
2022-10-11T10:10:59.429Z,99194.19
2022-10-11T10:13:52.827Z,99202.00
2022-10-11T10:16:33.690Z,99203.81
2022-10-11T10:19:03.673Z,99204.66
2022-10-11T10:21:37.308Z,99204.78
2022-10-11T10:24:20.557Z,99202.88
2022-10-11T10:27:10.188Z,99210.81
2022-10-11T10:29:37.507Z,99210.81
2022-10-11T10:32:21.265Z,99210.81
2022-10-11T10:35:06.687Z,99211.66
2022-10-11T10:37:40.685Z,99212.53
2022-10-11T10:40:17.164Z,99216.97
2022-10-11T10:42:43.805Z,99214.19
2022-10-11T10:45:21.415Z,99213.25
2022-10-11T10:48:18.233Z,99208.91
2022-10-11T10:51:10.340Z,99215.91
2022-10-11T10:53:44.411Z,99216.78
2022-10-11T10:56:17.422Z,99208.81
2022-10-11T10:59:13.288Z,99215.91
2022-10-11T11:02:11.123Z,99206.16
2022-10-11T11:05:17.451Z,99216.66
2022-10-11T11:07:50.031Z,99212.19
2022-10-11T11:10:23.238Z,99214.84
2022-10-11T11:13:22.476Z,99199.59
2022-10-11T11:16:15.121Z,99214.75
2022-10-11T11:19:13.401Z,99216.53
2022-10-11T11:21:52.261Z,99224.50
2022-10-11T11:24:40.472Z,99227.03
2022-10-11T11:27:27.423Z,99228.84
2022-10-11T11:30:06.280Z,99232.34
2022-10-11T11:32:48.140Z,99232.34
2022-10-11T11:35:37.988Z,99234.16
2022-10-11T11:38:16.557Z,99235.84
2022-10-11T11:40:52.469Z,99247.28
2022-10-11T11:43:32.664Z,99244.63
2022-10-11T11:46:14.035Z,99235.84
2022-10-11T11:48:43.197Z,99244.63
2022-10-11T11:51:17.681Z,99236.81
2022-10-11T11:54:12.328Z,99242.84
2022-10-11T11:56:47.830Z,99240.19
2022-10-11T11:59:27.828Z,99239.34
2022-10-11T12:02:42.429Z,99243.81
2022-10-11T12:05:11.967Z,99244.75
2022-10-11T12:08:28.121Z,99245.59
2022-10-11T12:10:59.557Z,99241.75
2022-10-11T12:13:46.477Z,99251.75
2022-10-11T12:16:15.632Z,99241.97
2022-10-11T12:18:51.063Z,99249.94
2022-10-11T12:21:32.908Z,99257.06
2022-10-11T12:24:09.537Z,99258.75
2022-10-11T12:26:47.133Z,99258.84
2022-10-11T12:29:43.577Z,99254.41
2022-10-11T12:32:11.399Z,99255.34
2022-10-11T12:37:19.017Z,99259.69
2022-10-11T12:39:52.767Z,99265.00
2022-10-11T12:42:26.273Z,99263.19
2022-10-11T12:45:10.942Z,99280.91
2022-10-11T12:47:37.443Z,99271.25
2022-10-11T12:50:17.856Z,99271.13
2022-10-11T12:53:12.344Z,99265.94
2022-10-11T12:55:46.732Z,99275.72
2022-10-11T12:58:43.874Z,99281.00
2022-10-11T13:01:17.485Z,99269.00
2022-10-11T13:04:00.093Z,99278.44
2022-10-11T13:06:44.405Z,99282.06
2022-10-11T13:09:10.917Z,99285.56
2022-10-11T13:11:45.535Z,99290.84
2022-10-11T13:14:19.114Z,99285.66
2022-10-11T13:16:58.477Z,99289.16
2022-10-11T13:19:26.049Z,99290.97
2022-10-11T13:21:59.337Z,99287.44
2022-10-11T13:24:27.667Z,99228.66
2022-10-11T13:26:56.460Z,99281.09
2022-10-11T13:29:28.733Z,99287.16
2022-10-11T13:31:55.873Z,99289.69
2022-10-11T13:34:23.646Z,99286.97
2022-10-11T13:36:58.663Z,99283.31
2022-10-11T13:39:31.532Z,99279.50
2022-10-11T13:41:59.670Z,99282.38
2022-10-11T13:44:26.992Z,99286.09
2022-10-11T13:46:56.613Z,99292.03
2022-10-11T13:49:27.044Z,99291.09
2022-10-11T13:52:02.295Z,99285.78
2022-10-11T13:55:04.174Z,99284.91
2022-10-11T13:57:38.958Z,99285.78
2022-10-11T14:00:24.088Z,99277.84
2022-10-11T14:03:02.181Z,99283.13
2022-10-11T14:05:41.202Z,99275.19
2022-10-11T14:08:55.199Z,99285.78
2022-10-11T14:11:39.650Z,99279.72
2022-10-11T14:14:28.825Z,99284.09
2022-10-11T14:17:05.713Z,99276.13
2022-10-11T14:19:34.469Z,99271.78
2022-10-11T14:22:00.956Z,99272.66
2022-10-11T14:24:27.576Z,99276.13
2022-10-11T14:26:55.799Z,99274.44
2022-10-11T14:29:25.667Z,99276.13
2022-10-11T14:32:05.510Z,99278.78
2022-10-11T14:34:34.900Z,99281.44
2022-10-11T14:37:01.447Z,99282.38
2022-10-11T14:39:30.933Z,99285.03
2022-10-11T14:41:57.873Z,99278.91
2022-10-11T14:44:24.784Z,99278.91
2022-10-11T14:46:54.725Z,99283.25
2022-10-11T14:49:28.701Z,99278.03
2022-10-11T14:51:57.545Z,99283.31
2022-10-11T14:54:25.588Z,99271.53
2022-10-11T14:56:54.815Z,99285.97
2022-10-11T14:59:24.645Z,99288.63
2022-10-11T15:01:53.827Z,99286.97
2022-10-11T15:04:21.512Z,99284.31
2022-10-11T15:06:48.872Z,99286.09
2022-10-11T15:09:17.122Z,99290.44
2022-10-11T15:11:43.792Z,99287.91
2022-10-11T15:14:10.368Z,99226.66
2022-10-11T15:16:36.944Z,99277.59
2022-10-11T15:19:03.933Z,99288.84
2022-10-11T15:21:30.657Z,99295.94
2022-10-11T15:23:57.539Z,99299.63
2022-10-11T15:26:29.012Z,99295.50
2022-10-11T15:28:57.182Z,99293.91
2022-10-11T15:31:24.152Z,99307.03
2022-10-11T15:33:51.083Z,99301.84
2022-10-11T15:36:20.821Z,99306.22
2022-10-11T15:38:48.333Z,99312.47
2022-10-11T15:41:16.582Z,99303.22
2022-10-11T15:43:44.861Z,99321.34
2022-10-11T15:46:17.696Z,99314.34
2022-10-11T15:48:45.669Z,99318.81
2022-10-11T15:51:12.553Z,99317.09
2022-10-11T15:53:40.516Z,99315.50
2022-10-11T15:56:12.168Z,99320.91
2022-10-11T15:58:41.518Z,99320.34
2022-10-11T16:01:19.600Z,99329.16
2022-10-11T16:03:48.427Z,99334.47
2022-10-11T16:06:16.202Z,99325.31
2022-10-11T16:08:43.355Z,99333.97
2022-10-11T16:11:10.757Z,99337.41
2022-10-11T16:13:37.841Z,99342.69
2022-10-11T16:16:06.912Z,99295.19
2022-10-11T16:18:35.613Z,99353.41
2022-10-11T16:21:08.424Z,99352.63
2022-10-11T16:23:35.953Z,99356.22
2022-10-11T16:26:06.015Z,99358.97
2022-10-11T16:28:33.380Z,99357.28
2022-10-11T16:31:00.197Z,99363.63
2022-10-11T16:33:26.979Z,99363.72
2022-10-11T16:35:56.157Z,99363.91
2022-10-11T16:38:22.716Z,99347.75
2022-10-11T16:40:49.212Z,99360.53
2022-10-11T16:43:15.802Z,99365.91
2022-10-11T16:45:42.300Z,99363.34
2022-10-11T16:48:08.833Z,99364.31
2022-10-11T16:50:39.302Z,99367.06
2022-10-11T16:53:06.515Z,99319.72
2022-10-11T16:55:33.106Z,99374.22
2022-10-11T16:57:59.717Z,99378.69
2022-10-11T17:00:26.306Z,99383.97
2022-10-11T17:02:55.032Z,99380.56
2022-10-11T17:05:21.619Z,99387.69
2022-10-11T17:07:48.155Z,99377.19
2022-10-11T17:10:14.699Z,99385.13
2022-10-11T17:12:41.308Z,99385.22
2022-10-11T17:15:10.822Z,99372.34
2022-10-11T17:17:37.481Z,99384.47
2022-10-11T17:20:04.467Z,99371.81
2022-10-11T17:22:31.042Z,99382.00
2022-10-11T17:24:57.535Z,99329.38
2022-10-11T17:27:24.166Z,99397.78
2022-10-11T17:29:50.669Z,99396.13
2022-10-11T17:32:17.224Z,99394.41
2022-10-11T17:34:43.782Z,99392.69
2022-10-11T17:37:12.484Z,99400.66
2022-10-11T17:39:38.980Z,99399.78
2022-10-11T17:42:07.705Z,99399.03
2022-10-11T17:44:35.710Z,99397.34
2022-10-11T17:47:02.800Z,99392.03
2022-10-11T17:49:29.599Z,99398.28
2022-10-11T17:51:56.640Z,99407.13
2022-10-11T17:54:23.266Z,99404.56
2022-10-11T17:56:50.295Z,99408.06
2022-10-11T17:59:18.839Z,99416.09
2022-10-11T18:01:45.538Z,99401.75
2022-10-11T18:04:16.577Z,99418.84
2022-10-11T18:06:45.886Z,99417.16
2022-10-11T18:09:15.033Z,99418.84
2022-10-11T18:11:41.833Z,99420.75
2022-10-11T18:14:09.428Z,99417.25
2022-10-11T18:16:37.256Z,99412.91
2022-10-11T18:19:07.050Z,99418.28
2022-10-11T18:21:35.102Z,99419.25
2022-10-11T18:24:03.956Z,99421.88
2022-10-11T18:26:31.210Z,99410.19
2022-10-11T18:28:58.495Z,99427.28
2022-10-11T18:31:28.506Z,99413.28
2022-10-11T18:33:55.613Z,99424.69
2022-10-11T18:36:27.110Z,99420.38
2022-10-11T18:38:56.788Z,99418.66
2022-10-11T18:41:30.730Z,99423.09
2022-10-11T18:44:06.405Z,99424.03
2022-10-11T18:46:33.959Z,99425.00
2022-10-11T18:49:03.619Z,99425.00
2022-10-11T18:51:38.476Z,99426.78
2022-10-11T18:54:06.905Z,99434.72
2022-10-11T18:56:35.349Z,99433.00
2022-10-11T18:59:05.380Z,99430.38
2022-10-11T19:01:38.214Z,99425.19
2022-10-11T19:04:07.381Z,99431.34
2022-10-11T19:06:37.164Z,99432.28
2022-10-11T19:09:13.991Z,99434.16
2022-10-11T19:11:41.282Z,99428.88
2022-10-11T19:14:11.372Z,99430.75
2022-10-11T19:16:45.290Z,99436.81
2022-10-11T19:19:12.889Z,99420.75
2022-10-11T19:21:39.685Z,99438.69
2022-10-11T19:24:06.683Z,99439.56
2022-10-11T19:26:38.397Z,99443.13
2022-10-11T19:29:08.193Z,99437.00
2022-10-11T19:31:39.963Z,99439.66
2022-10-11T19:34:06.720Z,99446.72
2022-10-11T19:36:36.621Z,99445.00
2022-10-11T19:39:05.424Z,99435.75
2022-10-11T19:41:32.745Z,99445.94
2022-10-11T19:43:59.960Z,99447.66
2022-10-11T19:49:17.575Z,99452.13
2022-10-11T19:51:44.454Z,99449.47
2022-10-11T19:54:15.819Z,99448.59
2022-10-11T19:56:43.441Z,99451.19
2022-10-11T19:59:11.352Z,99458.16
2022-10-11T20:01:41.850Z,99453.72
2022-10-11T20:04:27.461Z,99459.84
2022-10-11T20:06:57.909Z,99448.31
2022-10-11T20:09:29.500Z,99449.94
2022-10-11T20:11:56.809Z,99451.84
2022-10-11T20:14:23.413Z,99450.88
2022-10-11T20:16:50.790Z,99452.78
2022-10-11T20:19:17.889Z,99460.34
2022-10-11T20:21:45.081Z,99456.94
2022-10-11T20:24:11.874Z,99462.06
2022-10-11T20:26:39.194Z,99463.72
2022-10-11T20:29:05.794Z,99461.09
2022-10-11T20:31:40.917Z,99463.72
2022-10-11T20:34:07.899Z,99463.72
2022-10-11T20:36:35.839Z,99467.25
2022-10-11T20:39:03.739Z,99465.44
2022-10-11T20:41:33.368Z,99462.78
2022-10-11T20:44:01.624Z,99462.78
2022-10-11T20:46:31.496Z,99468.09
2022-10-11T20:49:13.120Z,99464.78
2022-10-11T20:51:41.718Z,99475.09
2022-10-11T20:54:08.377Z,99472.44
2022-10-11T20:56:36.800Z,99475.97
2022-10-11T20:59:03.540Z,99474.25
2022-10-11T21:01:33.265Z,99484.72
2022-10-11T21:04:01.397Z,99479.53
2022-10-11T21:06:31.479Z,99468.66
2022-10-11T21:08:59.390Z,99476.91
2022-10-11T21:11:27.506Z,99479.53
2022-10-11T21:13:58.659Z,99470.06
2022-10-11T21:16:26.892Z,99470.72
2022-10-11T21:18:55.449Z,99483.13
2022-10-11T21:21:23.850Z,99477.84
2022-10-11T21:23:57.979Z,99470.84
2022-10-11T21:26:25.491Z,99479.59
2022-10-11T21:28:52.216Z,99487.66
2022-10-11T21:31:22.933Z,99477.94
2022-10-11T21:33:52.165Z,99478.88
2022-10-11T21:36:20.962Z,99479.81
2022-10-11T21:38:48.549Z,99482.47
2022-10-11T21:41:26.057Z,99483.41
2022-10-11T21:43:52.984Z,99487.75
2022-10-11T21:46:41.593Z,99485.09
2022-10-11T21:49:12.351Z,99480.75
2022-10-11T21:51:38.912Z,99496.53
2022-10-11T21:54:05.709Z,99495.69
2022-10-11T21:56:32.425Z,99486.91
2022-10-11T21:58:59.076Z,99490.50
2022-10-11T22:01:25.667Z,99490.56
2022-10-11T22:03:55.220Z,99483.50
2022-10-11T22:06:22.086Z,99467.31
2022-10-11T22:08:49.898Z,99481.78
2022-10-11T22:11:17.039Z,99475.66
2022-10-11T22:13:43.598Z,99470.38
2022-10-11T22:16:12.988Z,99473.00
2022-10-11T22:18:41.321Z,99478.31
2022-10-11T22:21:14.113Z,99477.44
2022-10-11T22:23:42.485Z,99478.31
2022-10-11T22:26:14.700Z,99485.38
2022-10-11T22:28:41.633Z,99481.00
2022-10-11T22:31:09.866Z,99484.53
2022-10-11T22:33:36.965Z,99481.00
2022-10-11T22:36:05.759Z,99478.38
2022-10-11T22:38:32.580Z,99479.34
2022-10-11T22:40:59.250Z,99485.47
2022-10-11T22:43:25.979Z,99474.06
2022-10-11T22:45:52.577Z,99457.88
2022-10-11T22:48:19.221Z,99464.00
2022-10-11T22:50:45.739Z,99483.75
2022-10-11T22:53:16.117Z,99482.06
2022-10-11T22:55:42.740Z,99476.75
2022-10-11T22:58:09.572Z,99473.66
2022-10-11T23:00:37.060Z,99465.13
2022-10-11T23:03:03.941Z,99483.88
2022-10-11T23:05:30.503Z,99477.69
2022-10-11T23:07:57.021Z,99477.81
2022-10-11T23:10:23.592Z,99481.31
2022-10-11T23:12:50.074Z,99475.16
2022-10-11T23:15:17.046Z,99477.91
2022-10-11T23:17:43.521Z,99476.09
2022-10-11T23:20:10.648Z,99479.59
2022-10-11T23:22:37.262Z,99480.53
2022-10-11T23:25:04.608Z,99481.38
2022-10-11T23:27:31.156Z,99483.19
2022-10-11T23:29:57.969Z,99478.84
2022-10-11T23:32:24.523Z,99484.13
2022-10-11T23:34:51.588Z,99481.47
2022-10-11T23:37:18.260Z,99477.13
2022-10-11T23:39:45.196Z,99478.94
2022-10-11T23:42:11.827Z,99479.78
2022-10-11T23:44:38.457Z,99484.22
2022-10-11T23:47:04.991Z,99488.75
2022-10-11T23:49:31.535Z,99486.09
2022-10-11T23:51:58.134Z,99488.75
2022-10-11T23:54:24.896Z,99485.16
2022-10-11T23:56:51.446Z,99488.75
2022-10-11T23:59:18.072Z,99489.69
